John P. Brown — WDA9975 — position and weather

sailwx.info

Track history (hours):
 
Tides and Currents Weather Stations Pressure Air Temp Water Temp Dewpoint Dewpoint Depression Visibility Wind Speed Wind Dir Waves Ship Positions

John P. Brown

Owner: THOMAS J. BROWN & SONS INC., STATEN ISLAND, NY. More information available from US FCC via Universal Licensing System and Coast Guard Vessel Documentation Center.

Last reported at 2018-Jan-19 18:53 UTC. Time now 2018-Jan-21 04:54 UTC.
Position N 40°38' W 074°10'.

Length 23 m; draft 2.8 m.

Type: Tug. MMSI: 366870980.

Date/timePositionNaut miles runAvg speedWind from/ knotsBaromVisibWave heightAir tempDewpointWater temp
2018-Jan-19 18:53N 40°38' W 074°10'2 5.3
2018-Jan-19 18:30N 40°39' W 074°07'3 5.9
2018-Jan-19 18:00N 40°40' W 074°04'0 0.1
2018-Jan-19 17:31N 40°40' W 074°04'2 4.1
2018-Jan-19 17:00N 40°39' W 074°02'0 0.0
2018-Jan-19 16:30N 40°39' W 074°02'1 1.4
2018-Jan-19 16:00N 40°39' W 074°03'2 4.0
2018-Jan-19 15:30N 40°41' W 074°04'0 0.1
2018-Jan-19 15:00N 40°41' W 074°04'0 0.8
2018-Jan-19 14:30N 40°40' W 074°04'2 4.4
2018-Jan-19 14:00N 40°39' W 074°02'0 0.3
2018-Jan-19 13:30N 40°39' W 074°02'1 1.5
2018-Jan-19 13:00N 40°39' W 074°03'2 3.9
2018-Jan-19 12:30N 40°41' W 074°04'2 4.2
2018-Jan-19 11:59N 40°39' W 074°06'3 6.2
2018-Jan-19 11:30N 40°38' W 074°10'0 0.0
2018-Jan-18 23:10N 40°38' W 074°10'1 3.4
2018-Jan-18 23:00N 40°38' W 074°09'4 8.0
2018-Jan-18 22:31N 40°40' W 074°04'3 6.4
2018-Jan-18 22:00N 40°41' W 074°00'1 2.9
2018-Jan-18 21:30N 40°41' W 074°02'2 4.5
2018-Jan-18 21:00N 40°39' W 074°04'3 6.9
2018-Jan-18 20:30N 40°38' W 074°09'2 4.0
2018-Jan-18 20:00N 40°39' W 074°12'0 0.4
2018-Jan-18 19:30N 40°39' W 074°11'4 7.2
2018-Jan-18 19:00N 40°39' W 074°07'3 5.2
2018-Jan-18 18:30N 40°41' W 074°04'1 2.2
2018-Jan-18 18:00N 40°40' W 074°03'1 2.8
2018-Jan-18 17:30N 40°39' W 074°02'0 0.5
2018-Jan-18 17:01N 40°39' W 074°02'0 0.0
2018-Jan-18 16:30N 40°39' W 074°02'2 4.8
2018-Jan-18 16:00N 40°40' W 074°04'0 0.8
2018-Jan-18 15:30N 40°41' W 074°04'0 0.0
2018-Jan-18 15:00N 40°41' W 074°04'1 1.6
2018-Jan-18 14:30N 40°40' W 074°04'2 3.9
2018-Jan-18 14:00N 40°39' W 074°02'0 0.0
2018-Jan-18 13:31N 40°39' W 074°02'1 1.8
2018-Jan-18 13:00N 40°39' W 074°03'2 3.7
2018-Jan-18 12:31N 40°41' W 074°04'2 3.7
2018-Jan-18 11:59N 40°39' W 074°05'  
2018-Jan-12 15:00N 40°41' W 074°04'0 0.0
2018-Jan-12 14:30N 40°41' W 074°04'0 0.1
2018-Jan-12 14:00N 40°41' W 074°04'0 0.0
2018-Jan-12 13:31N 40°41' W 074°04'0 0.0
2018-Jan-12 13:00N 40°41' W 074°04'0 0.0
2018-Jan-12 12:31N 40°41' W 074°04'1 2.6
2018-Jan-12 12:00N 40°39' W 074°04'4 8.5
2018-Jan-12 11:30N 40°38' W 074°10'3 0.3
2018-Jan-12 00:42N 40°39' W 074°06'2 9.2
2018-Jan-12 00:30N 40°40' W 074°04'0 0.8
2018-Jan-12 00:00N 40°40' W 074°04'4 4.2
2018-Jan-11 23:07N 40°39' W 074°09'1 9.1
2018-Jan-11 22:57N 40°39' W 074°07'3 6.0
2018-Jan-11 22:30N 40°41' W 074°04'1 1.7
2018-Jan-11 22:00N 40°40' W 074°04'2 3.6
2018-Jan-11 21:26N 40°39' W 074°06'0 0.0
2018-Jan-11 20:00N 40°39' W 074°06'0 0.0
2018-Jan-11 18:44N 40°39' W 074°06'2 0.9
2018-Jan-11 16:43N 40°39' W 074°09'210.2
2018-Jan-11 16:29N 40°39' W 074°06'2 4.2
2018-Jan-11 16:00N 40°41' W 074°04'0 0.0
2018-Jan-11 15:31N 40°41' W 074°04'0 0.0
2018-Jan-11 15:01N 40°41' W 074°04'0 0.0
2018-Jan-11 14:31N 40°41' W 074°04'2 3.4
2018-Jan-11 14:01N 40°39' W 074°03'1 2.1
2018-Jan-11 13:31N 40°39' W 074°02'0 0.1
2018-Jan-11 13:00N 40°39' W 074°02'3 5.1
2018-Jan-11 12:31N 40°41' W 074°04'1 1.7
2018-Jan-11 12:00N 40°40' W 074°04'4 0.2
2018-Jan-10 18:30N 40°39' W 074°09'3 7.0
2018-Jan-10 18:00N 40°38' W 074°04'3 5.3
2018-Jan-10 17:30N 40°40' W 074°01'0 0.0
2018-Jan-10 17:00N 40°40' W 074°01'0 0.0
2018-Jan-10 16:30N 40°40' W 074°01'0 0.1
2018-Jan-10 16:00N 40°40' W 074°01'0 0.0
2018-Jan-10 15:30N 40°40' W 074°01'0 0.0
2018-Jan-10 15:00N 40°40' W 074°01'0 0.0
2018-Jan-10 14:30N 40°40' W 074°01'1 1.4
2018-Jan-10 14:00N 40°39' W 074°02'  
Track history (hours):
 
Tides and Currents Weather Stations Pressure Air Temp Water Temp Dewpoint Dewpoint Depression Visibility Wind Speed Wind Dir Waves Ship Positions

John P. Brown

Owner: THOMAS J. BROWN & SONS INC., STATEN ISLAND, NY. More information available from US FCC via Universal Licensing System and Coast Guard Vessel Documentation Center.

Last reported at 2018-Jan-19 18:53 UTC. Time now 2018-Jan-21 04:54 UTC.
Position N 40°38' W 074°10'.

Length 23 m; draft 2.8 m.

Type: Tug. MMSI: 366870980.

Date/timePositionNaut miles runAvg speedWind from/ knotsBaromVisibWave heightAir tempDewpointWater temp
2018-Jan-19 18:53N 40°38' W 074°10'2 5.3
2018-Jan-19 18:30N 40°39' W 074°07'3 5.9
2018-Jan-19 18:00N 40°40' W 074°04'0 0.1
2018-Jan-19 17:31N 40°40' W 074°04'2 4.1
2018-Jan-19 17:00N 40°39' W 074°02'0 0.0
2018-Jan-19 16:30N 40°39' W 074°02'1 1.4
2018-Jan-19 16:00N 40°39' W 074°03'2 4.0
2018-Jan-19 15:30N 40°41' W 074°04'0 0.1
2018-Jan-19 15:00N 40°41' W 074°04'0 0.8
2018-Jan-19 14:30N 40°40' W 074°04'2 4.4
2018-Jan-19 14:00N 40°39' W 074°02'0 0.3
2018-Jan-19 13:30N 40°39' W 074°02'1 1.5
2018-Jan-19 13:00N 40°39' W 074°03'2 3.9
2018-Jan-19 12:30N 40°41' W 074°04'2 4.2
2018-Jan-19 11:59N 40°39' W 074°06'3 6.2
2018-Jan-19 11:30N 40°38' W 074°10'0 0.0
2018-Jan-18 23:10N 40°38' W 074°10'1 3.4
2018-Jan-18 23:00N 40°38' W 074°09'4 8.0
2018-Jan-18 22:31N 40°40' W 074°04'3 6.4
2018-Jan-18 22:00N 40°41' W 074°00'1 2.9
2018-Jan-18 21:30N 40°41' W 074°02'2 4.5
2018-Jan-18 21:00N 40°39' W 074°04'3 6.9
2018-Jan-18 20:30N 40°38' W 074°09'2 4.0
2018-Jan-18 20:00N 40°39' W 074°12'0 0.4
2018-Jan-18 19:30N 40°39' W 074°11'4 7.2
2018-Jan-18 19:00N 40°39' W 074°07'3 5.2
2018-Jan-18 18:30N 40°41' W 074°04'1 2.2
2018-Jan-18 18:00N 40°40' W 074°03'1 2.8
2018-Jan-18 17:30N 40°39' W 074°02'0 0.5
2018-Jan-18 17:01N 40°39' W 074°02'0 0.0
2018-Jan-18 16:30N 40°39' W 074°02'2 4.8
2018-Jan-18 16:00N 40°40' W 074°04'0 0.8
2018-Jan-18 15:30N 40°41' W 074°04'0 0.0
2018-Jan-18 15:00N 40°41' W 074°04'1 1.6
2018-Jan-18 14:30N 40°40' W 074°04'2 3.9
2018-Jan-18 14:00N 40°39' W 074°02'0 0.0
2018-Jan-18 13:31N 40°39' W 074°02'1 1.8
2018-Jan-18 13:00N 40°39' W 074°03'2 3.7
2018-Jan-18 12:31N 40°41' W 074°04'2 3.7
2018-Jan-18 11:59N 40°39' W 074°05'  
2018-Jan-12 15:00N 40°41' W 074°04'0 0.0
2018-Jan-12 14:30N 40°41' W 074°04'0 0.1
2018-Jan-12 14:00N 40°41' W 074°04'0 0.0
2018-Jan-12 13:31N 40°41' W 074°04'0 0.0
2018-Jan-12 13:00N 40°41' W 074°04'0 0.0
2018-Jan-12 12:31N 40°41' W 074°04'1 2.6
2018-Jan-12 12:00N 40°39' W 074°04'4 8.5
2018-Jan-12 11:30N 40°38' W 074°10'3 0.3
2018-Jan-12 00:42N 40°39' W 074°06'2 9.2
2018-Jan-12 00:30N 40°40' W 074°04'0 0.8
2018-Jan-12 00:00N 40°40' W 074°04'4 4.2
2018-Jan-11 23:07N 40°39' W 074°09'1 9.1
2018-Jan-11 22:57N 40°39' W 074°07'3 6.0
2018-Jan-11 22:30N 40°41' W 074°04'1 1.7
2018-Jan-11 22:00N 40°40' W 074°04'2 3.6
2018-Jan-11 21:26N 40°39' W 074°06'0 0.0
2018-Jan-11 20:00N 40°39' W 074°06'0 0.0
2018-Jan-11 18:44N 40°39' W 074°06'2 0.9
2018-Jan-11 16:43N 40°39' W 074°09'210.2
2018-Jan-11 16:29N 40°39' W 074°06'2 4.2
2018-Jan-11 16:00N 40°41' W 074°04'0 0.0
2018-Jan-11 15:31N 40°41' W 074°04'0 0.0
2018-Jan-11 15:01N 40°41' W 074°04'0 0.0
2018-Jan-11 14:31N 40°41' W 074°04'2 3.4
2018-Jan-11 14:01N 40°39' W 074°03'1 2.1
2018-Jan-11 13:31N 40°39' W 074°02'0 0.1
2018-Jan-11 13:00N 40°39' W 074°02'3 5.1
2018-Jan-11 12:31N 40°41' W 074°04'1 1.7
2018-Jan-11 12:00N 40°40' W 074°04'4 0.2
2018-Jan-10 18:30N 40°39' W 074°09'3 7.0
2018-Jan-10 18:00N 40°38' W 074°04'3 5.3
2018-Jan-10 17:30N 40°40' W 074°01'0 0.0
2018-Jan-10 17:00N 40°40' W 074°01'0 0.0
2018-Jan-10 16:30N 40°40' W 074°01'0 0.1
2018-Jan-10 16:00N 40°40' W 074°01'0 0.0
2018-Jan-10 15:30N 40°40' W 074°01'0 0.0
2018-Jan-10 15:00N 40°40' W 074°01'0 0.0
2018-Jan-10 14:30N 40°40' W 074°01'1 1.4
2018-Jan-10 14:00N 40°39' W 074°02'  

Dump ship's entire track history